ロンドン/ヒースロー の空港の天気 - METARとTAF

ロンドン・ヒースロー空港 ( EGLL / LHR ) - イギリス ロンドン
飛行場実況気象(Metar)
観測時間06/25 14:20 BST (06/25 13:20 UTC)
風向・風速不定 2m/s
視程10km以上
天気現象
なし
気温29℃
湿度22%
気圧1025hPa
METAREGLL 251320Z AUTO VRB04KT 9999 NCD 29/05 Q1025 NOSIG
過去の天気等 Google飛行場航空写真 Wunderground天気予報

過去48時間のMETAR

飛行場予報(TAF)
発表時間: 6/25 11:53 BST (6/25 10:53 UTC)
予報対象時間: 25日13時 BST ~ 26日19時 BST
風向・風速北 3m/s
視程10km以上
なし
25日19時 BST ~ 25日22時 BST に徐々に
風向・風速北東 5m/s
TAF EGLL 251053Z 2512/2618 35005KT CAVOK
BECMG 2518/2521 05010KT